Time;durP1;ratioP1;P1;durP2;ratioP2;P2;SDS_P1;SDS_P2;PMS_P1;PMS_P2;Temp;Humidity;BMP_temperature;BMP_pressure;BME280_temperature;BME280_humidity;BME280_pressure;Samples;Min_cycle;Max_cycle;Signal;HPM_P1;HPM_P2
2023/06/19 00:02:04;;;;;;;5.30;2.20;;;;;;;16.41;100.00;100149.00;105579;1251;60031;-74
2023/06/19 00:04:31;;;;;;;5.30;2.20;;;;;;;16.38;100.00;100146.56;105696;1253;71755;-73
2023/06/19 00:07:00;;;;;;;5.70;2.50;;;;;;;16.36;100.00;100151.13;105981;1250;67917;-78
2023/06/19 00:09:27;;;;;;;5.40;2.20;;;;;;;16.34;100.00;100150.46;105692;1250;73171;-71
2023/06/19 00:11:58;;;;;;;4.80;2.00;;;;;;;16.31;100.00;100151.23;105512;1251;60421;-72
2023/06/19 00:14:25;;;;;;;4.30;1.90;;;;;;;16.27;100.00;100152.02;106047;1250;59523;-75
2023/06/19 00:16:52;;;;;;;7.50;2.20;;;;;;;16.24;100.00;100149.25;105412;1253;72886;-76
2023/06/19 00:19:19;;;;;;;5.20;2.50;;;;;;;16.21;100.00;100150.92;105569;1256;67285;-71
2023/06/19 00:21:46;;;;;;;5.20;2.40;;;;;;;16.19;100.00;100151.79;105712;1254;72556;-71
2023/06/19 00:24:13;;;;;;;5.80;2.60;;;;;;;16.17;100.00;100154.16;106029;1250;61075;-76
2023/06/19 00:26:43;;;;;;;5.90;2.40;;;;;;;16.18;100.00;100151.33;105959;1254;59529;-72
2023/06/19 00:29:10;;;;;;;5.70;2.10;;;;;;;16.15;100.00;100149.75;105985;1253;72994;-76
2023/06/19 00:31:37;;;;;;;5.70;2.20;;;;;;;16.14;100.00;100149.35;105561;1253;67963;-71
2023/06/19 00:34:04;;;;;;;7.00;2.30;;;;;;;16.13;100.00;100150.36;106073;1250;72447;-76
2023/06/19 00:36:31;;;;;;;4.60;2.10;;;;;;;16.11;100.00;100151.46;105626;1251;59675;-71
2023/06/19 00:38:58;;;;;;;6.20;2.40;;;;;;;16.07;100.00;100150.05;105847;1250;60130;-73
2023/06/19 00:41:26;;;;;;;4.70;2.30;;;;;;;16.05;100.00;100149.42;105488;1254;71984;-71
2023/06/19 00:43:54;;;;;;;4.70;2.00;;;;;;;16.01;100.00;100146.75;105504;1256;67162;-73
2023/06/19 00:46:20;;;;;;;5.00;2.00;;;;;;;16.01;100.00;100143.72;106180;1253;73282;-76
2023/06/19 00:48:48;;;;;;;4.30;2.20;;;;;;;15.99;100.00;100144.04;105227;1256;60259;-72
2023/06/19 00:51:15;;;;;;;5.10;2.00;;;;;;;15.95;100.00;100143.36;105772;1255;59548;-75
2023/06/19 00:53:42;;;;;;;6.60;2.40;;;;;;;15.91;100.00;100141.41;105402;1255;73106;-72
2023/06/19 00:56:08;;;;;;;4.60;2.30;;;;;;;15.87;100.00;100144.98;105666;1256;66936;-74
2023/06/19 00:58:36;;;;;;;5.10;2.50;;;;;;;15.82;100.00;100145.77;105311;1252;70578;-72
2023/06/19 01:01:04;;;;;;;4.80;2.50;;;;;;;15.77;100.00;100145.05;105489;1256;60562;-73
2023/06/19 01:03:37;;;;;;;4.20;2.30;;;;;;;15.75;100.00;100146.41;105480;1255;59500;-71
2023/06/19 01:06:16;;;;;;;7.40;2.40;;;;;;;15.72;100.00;100141.08;105468;1252;72968;-74
2023/06/19 01:09:08;;;;;;;7.10;2.70;;;;;;;15.69;100.00;100143.95;105575;1252;66239;-72
2023/06/19 01:11:39;;;;;;;5.70;2.20;;;;;;;15.65;100.00;100146.45;105264;1254;72761;-76
2023/06/19 01:14:09;;;;;;;8.40;2.20;;;;;;;15.62;100.00;100143.98;105505;1256;60508;-72
2023/06/19 01:16:37;;;;;;;4.40;2.30;;;;;;;15.58;100.00;100144.59;105488;1250;60412;-74
2023/06/19 01:19:04;;;;;;;4.90;2.50;;;;;;;15.54;100.00;100143.34;105508;1250;71543;-74
2023/06/19 01:21:31;;;;;;;5.00;2.20;;;;;;;15.51;100.00;100148.17;105282;1250;65706;-74
2023/06/19 01:23:58;;;;;;;5.50;1.90;;;;;;;15.47;100.00;100148.63;105131;1259;73099;-73
2023/06/19 01:26:27;;;;;;;4.70;2.30;;;;;;;15.45;100.00;100146.50;105527;1250;60317;-73
2023/06/19 01:28:54;;;;;;;4.60;2.40;;;;;;;15.41;100.00;100149.97;105874;1250;60387;-76
2023/06/19 01:31:26;;;;;;;4.80;1.70;;;;;;;15.37;100.00;100150.27;105668;1250;73146;-72
2023/06/19 01:33:53;;;;;;;9.00;2.30;;;;;;;15.34;100.00;100153.02;105529;1250;67152;-72
2023/06/19 01:36:20;;;;;;;6.00;2.40;;;;;;;15.31;100.00;100151.53;105555;1251;72740;-71
2023/06/19 01:38:47;;;;;;;5.90;2.00;;;;;;;15.29;100.00;100148.88;106014;1250;60521;-73
2023/06/19 01:41:15;;;;;;;7.50;1.90;;;;;;;15.25;100.00;100148.34;105926;1250;60517;-77
2023/06/19 01:43:42;;;;;;;5.30;2.00;;;;;;;15.23;100.00;100151.13;105343;1251;73894;-73
2023/06/19 01:46:09;;;;;;;7.10;2.10;;;;;;;15.21;100.00;100151.90;105594;1250;67155;-72
2023/06/19 01:48:38;;;;;;;6.50;2.40;;;;;;;15.17;100.00;100151.28;106035;1250;73061;-77
2023/06/19 01:51:06;;;;;;;5.10;2.10;;;;;;;15.16;100.00;100164.14;105336;1250;60584;-74
2023/06/19 01:53:33;;;;;;;4.20;1.90;;;;;;;15.18;100.00;100161.49;105590;1254;60401;-73
2023/06/19 01:56:01;;;;;;;3.70;1.60;;;;;;;15.20;100.00;100166.30;105654;1251;73124;-73
2023/06/19 01:58:30;;;;;;;4.10;2.10;;;;;;;15.25;100.00;100164.35;105711;1250;67087;-75
2023/06/19 02:00:57;;;;;;;5.10;2.00;;;;;;;15.40;100.00;100164.70;105835;1251;72560;-76
2023/06/19 02:03:24;;;;;;;6.90;1.90;;;;;;;15.72;100.00;100162.05;105730;1254;60537;-72
2023/06/19 02:05:52;;;;;;;6.10;2.80;;;;;;;16.12;100.00;100161.71;105514;1255;60426;-73
2023/06/19 02:08:20;;;;;;;5.70;2.60;;;;;;;16.56;100.00;100160.65;105577;1253;73668;-75
2023/06/19 02:10:47;;;;;;;6.00;3.30;;;;;;;16.96;100.00;100162.33;105647;1251;67065;-77
2023/06/19 02:13:14;;;;;;;7.00;3.70;;;;;;;17.31;100.00;100162.57;105670;1255;73073;-71
2023/06/19 02:15:43;;;;;;;7.70;4.10;;;;;;;17.68;100.00;100159.95;105425;1253;60621;-72
2023/06/19 02:18:12;;;;;;;9.30;3.90;;;;;;;18.03;100.00;100154.20;105624;1256;60332;-74
2023/06/19 02:20:39;;;;;;;9.10;4.70;;;;;;;18.39;100.00;100154.73;106103;1251;73879;-74
2023/06/19 02:23:05;;;;;;;7.30;4.10;;;;;;;18.73;100.00;100155.18;105683;1256;68391;-72
2023/06/19 02:25:35;;;;;;;8.10;4.20;;;;;;;19.04;100.00;100157.34;105265;1253;72563;-70
2023/06/19 02:28:03;;;;;;;9.40;3.80;;;;;;;19.34;100.00;100157.02;105617;1253;60541;-71
2023/06/19 02:30:30;;;;;;;8.40;4.40;;;;;;;19.63;100.00;100151.67;105498;1256;60508;-71
2023/06/19 02:32:57;;;;;;;10.80;4.20;;;;;;;19.91;100.00;100152.60;105915;1252;72844;-77
2023/06/19 02:35:26;;;;;;;8.60;4.40;;;;;;;20.18;100.00;100154.06;105509;1256;67412;-70
2023/06/19 02:37:55;;;;;;;8.60;4.50;;;;;;;20.42;100.00;100153.78;105594;1254;72550;-71
2023/06/19 02:40:22;;;;;;;10.60;4.60;;;;;;;20.67;100.00;100157.68;105566;1250;60482;-71
2023/06/19 02:42:50;;;;;;;9.00;5.00;;;;;;;20.93;100.00;100159.70;106051;1250;60364;-70
2023/06/19 02:45:17;;;;;;;9.00;4.60;;;;;;;21.15;100.00;100161.51;106090;1250;72409;-71
2023/06/19 02:47:44;;;;;;;10.10;5.30;;;;;;;21.40;100.00;100160.45;105554;1251;65712;-71
2023/06/19 02:50:11;;;;;;;8.90;4.80;;;;;;;21.65;100.00;100159.53;105673;1251;72352;-71
2023/06/19 02:52:39;;;;;;;9.60;5.50;;;;;;;21.81;100.00;100154.98;105983;1254;60970;-78
2023/06/19 02:55:07;;;;;;;8.40;4.60;;;;;;;21.98;100.00;100152.88;105943;1256;60415;-72
2023/06/19 02:57:34;;;;;;;10.80;4.70;;;;;;;22.22;100.00;100155.02;105738;1254;73862;-74
2023/06/19 03:00:05;;;;;;;8.50;4.90;;;;;;;22.49;99.69;100151.40;105677;1251;67272;-71
2023/06/19 03:02:33;;;;;;;8.90;4.60;;;;;;;22.74;98.32;100154.39;105984;1254;72459;-73
2023/06/19 03:05:00;;;;;;;8.00;4.90;;;;;;;22.99;96.74;100149.67;106178;1251;60933;-72
2023/06/19 03:07:28;;;;;;;7.20;4.30;;;;;;;23.20;92.83;100147.84;105834;1251;60399;-73
2023/06/19 03:09:55;;;;;;;8.60;4.80;;;;;;;23.38;91.48;100144.02;105666;1250;72473;-72
2023/06/19 03:12:22;;;;;;;9.80;4.50;;;;;;;23.59;90.66;100139.38;105484;1253;65874;-72
2023/06/19 03:14:49;;;;;;;11.20;4.60;;;;;;;23.84;88.32;100135.30;105887;1254;71565;-81
2023/06/19 03:17:16;;;;;;;8.00;5.00;;;;;;;24.12;84.66;100140.05;105175;1255;60530;-72
2023/06/19 03:19:43;;;;;;;8.90;4.30;;;;;;;24.36;77.76;100145.60;105592;1257;60432;-72
2023/06/19 03:22:10;;;;;;;9.30;5.10;;;;;;;24.43;76.84;100150.58;105577;1256;74121;-71
2023/06/19 03:24:38;;;;;;;9.30;5.50;;;;;;;24.62;76.57;100147.99;106308;1252;67334;-71
2023/06/19 03:27:26;;;;;;;14.30;6.10;;;;;;;24.84;69.98;100146.41;105399;1253;72698;-72
2023/06/19 03:29:53;;;;;;;11.80;5.40;;;;;;;24.96;67.04;100150.37;105642;1256;61167;-71
2023/06/19 03:32:25;;;;;;;9.50;5.70;;;;;;;25.00;66.91;100148.66;105554;1250;60524;-80
2023/06/19 03:34:52;;;;;;;11.50;6.60;;;;;;;25.07;63.46;100147.27;106129;1250;74239;-70
2023/06/19 03:37:20;;;;;;;8.80;5.60;;;;;;;24.99;65.31;100146.48;105536;1253;67188;-71
2023/06/19 03:39:47;;;;;;;9.90;6.90;;;;;;;25.09;66.80;100146.79;105442;1252;72576;-71
2023/06/19 03:42:15;;;;;;;9.80;5.90;;;;;;;25.28;62.75;100146.88;105176;1253;60423;-71
2023/06/19 03:44:42;;;;;;;11.60;6.10;;;;;;;25.30;61.22;100145.67;106158;1251;60530;-79
2023/06/19 03:47:09;;;;;;;9.90;5.70;;;;;;;25.32;62.66;100149.65;105523;1256;74101;-72
2023/06/19 03:49:36;;;;;;;10.30;6.30;;;;;;;25.52;59.47;100148.63;105579;1250;67090;-71
2023/06/19 03:52:03;;;;;;;12.80;6.10;;;;;;;25.62;59.53;100150.33;105579;1250;72412;-72
2023/06/19 03:54:30;;;;;;;11.40;5.90;;;;;;;25.86;59.96;100153.52;105858;1250;60594;-78
2023/06/19 03:56:57;;;;;;;8.50;5.50;;;;;;;26.21;55.91;100153.25;105563;1255;60364;-79
2023/06/19 03:59:24;;;;;;;9.90;5.40;;;;;;;26.50;53.52;100155.89;105607;1255;74514;-71
2023/06/19 04:01:52;;;;;;;7.70;5.30;;;;;;;26.73;51.29;100161.50;105491;1255;66315;-73
2023/06/19 04:04:19;;;;;;;8.50;5.50;;;;;;;26.99;49.60;100160.38;105782;1253;71407;-78
2023/06/19 04:06:47;;;;;;;7.40;4.90;;;;;;;27.23;47.01;100159.91;106135;1251;60436;-72
2023/06/19 04:09:14;;;;;;;8.70;4.90;;;;;;;27.35;46.02;100158.17;105508;1250;60410;-71
2023/06/19 04:11:41;;;;;;;7.70;4.70;;;;;;;27.54;45.29;100156.05;105494;1250;72760;-71
2023/06/19 04:14:09;;;;;;;6.10;4.30;;;;;;;27.73;42.88;100155.98;105508;1256;65716;-72
2023/06/19 04:16:36;;;;;;;7.40;4.20;;;;;;;27.84;42.53;100158.66;105716;1250;72442;-71
2023/06/19 04:19:03;;;;;;;5.30;3.60;;;;;;;27.93;41.71;100160.58;105682;1250;61130;-81
2023/06/19 04:21:30;;;;;;;7.60;4.20;;;;;;;27.97;41.22;100163.86;105567;1253;60312;-72
2023/06/19 04:23:57;;;;;;;7.00;4.00;;;;;;;27.92;40.40;100166.11;105517;1250;72631;-73
2023/06/19 04:26:25;;;;;;;5.90;3.60;;;;;;;27.91;40.43;100169.13;105921;1251;67541;-72
2023/06/19 04:28:52;;;;;;;11.50;3.70;;;;;;;27.98;40.72;100171.27;105546;1254;71347;-72
2023/06/19 04:31:19;;;;;;;7.10;3.60;;;;;;;28.23;40.12;100173.09;105774;1253;60438;-74
2023/06/19 04:33:46;;;;;;;5.30;3.30;;;;;;;28.31;37.32;100173.34;105500;1250;60534;-71
2023/06/19 04:36:14;;;;;;;8.10;3.20;;;;;;;28.13;37.48;100178.72;105428;1251;73351;-72
2023/06/19 04:38:41;;;;;;;8.20;4.00;;;;;;;27.97;37.10;100180.40;105676;1255;65635;-71
2023/06/19 04:41:08;;;;;;;5.60;3.20;;;;;;;27.82;37.11;100182.17;105456;1255;72616;-71
2023/06/19 04:43:35;;;;;;;5.20;3.20;;;;;;;27.78;37.14;100178.35;105415;1250;60994;-70
2023/06/19 04:46:03;;;;;;;8.00;3.00;;;;;;;27.81;36.52;100183.23;105547;1254;60277;-69
2023/06/19 04:48:30;;;;;;;5.80;3.00;;;;;;;27.72;37.42;100185.27;105942;1250;73596;-82
2023/06/19 04:51:00;;;;;;;9.00;3.40;;;;;;;27.64;38.44;100187.70;105488;1251;67924;-70
2023/06/19 04:53:27;;;;;;;7.20;3.90;;;;;;;27.69;38.70;100192.54;105549;1250;72498;-80
2023/06/19 04:55:55;;;;;;;6.90;3.30;;;;;;;27.78;38.63;100191.00;105457;1250;60536;-71
2023/06/19 04:58:22;;;;;;;5.20;3.20;;;;;;;27.99;38.61;100197.94;105570;1256;60286;-71
2023/06/19 05:00:52;;;;;;;7.40;3.20;;;;;;;28.09;37.47;100198.70;105374;1255;73843;-72
2023/06/19 05:03:19;;;;;;;6.00;3.30;;;;;;;28.08;37.74;100200.49;105405;1255;67379;-70
2023/06/19 05:05:46;;;;;;;5.40;3.20;;;;;;;28.15;37.54;100208.98;105961;1252;71288;-75
2023/06/19 05:08:14;;;;;;;6.00;3.10;;;;;;;28.19;37.72;100209.64;105691;1256;60658;-80
2023/06/19 05:10:42;;;;;;;6.90;3.50;;;;;;;28.20;37.68;100211.11;105597;1255;60712;-70
2023/06/19 05:13:12;;;;;;;7.90;3.70;;;;;;;28.22;37.65;100211.87;105435;1254;74483;-71
2023/06/19 05:15:40;;;;;;;8.90;3.30;;;;;;;28.29;37.61;100212.79;105942;1255;66137;-73
2023/06/19 05:18:07;;;;;;;7.90;3.10;;;;;;;28.40;37.66;100213.52;105716;1254;72579;-73
2023/06/19 05:20:35;;;;;;;9.80;3.40;;;;;;;28.51;36.59;100209.79;105622;1254;61154;-72
2023/06/19 05:23:02;;;;;;;5.50;3.00;;;;;;;28.46;37.10;100215.86;105421;1256;60515;-71
2023/06/19 05:25:31;;;;;;;9.00;3.60;;;;;;;28.53;36.86;100219.08;106260;1251;72813;-68
2023/06/19 05:27:59;;;;;;;8.70;3.70;;;;;;;28.63;37.55;100213.06;105660;1250;67113;-77
2023/06/19 05:30:25;;;;;;;6.50;3.10;;;;;;;28.84;38.07;100214.91;105902;1254;73223;-79
2023/06/19 05:32:53;;;;;;;7.00;3.60;;;;;;;29.04;36.67;100220.90;105191;1254;60732;-68
2023/06/19 05:35:20;;;;;;;6.90;3.40;;;;;;;29.08;36.17;100219.19;106357;1250;59391;-68
2023/06/19 05:37:47;;;;;;;6.60;3.70;;;;;;;29.10;36.65;100220.58;105727;1250;72677;-66
2023/06/19 05:40:15;;;;;;;9.00;3.60;;;;;;;29.15;35.59;100222.53;105780;1254;67182;-69
2023/06/19 05:42:41;;;;;;;7.70;3.10;;;;;;;29.28;36.33;100222.69;105504;1250;72529;-70
2023/06/19 05:45:09;;;;;;;6.30;3.10;;;;;;;29.61;35.85;100220.09;105953;1250;60358;-68
2023/06/19 05:47:36;;;;;;;6.70;3.40;;;;;;;29.88;34.35;100225.27;105808;1251;60322;-67
2023/06/19 05:50:04;;;;;;;7.20;3.20;;;;;;;29.79;34.06;100216.80;105699;1253;73587;-67
2023/06/19 05:52:31;;;;;;;8.10;4.00;;;;;;;29.57;34.92;100218.74;105966;1251;66170;-68
2023/06/19 05:54:58;;;;;;;8.10;3.60;;;;;;;29.50;35.48;100226.23;106224;1250;72763;-68
2023/06/19 05:57:25;;;;;;;6.20;3.40;;;;;;;29.46;34.97;100220.96;105911;1256;60531;-70
2023/06/19 05:59:52;;;;;;;8.40;3.90;;;;;;;29.42;35.60;100227.68;105607;1255;60403;-70
2023/06/19 06:02:20;;;;;;;7.10;3.60;;;;;;;29.46;35.73;100222.05;105431;1256;73740;-73
2023/06/19 06:04:47;;;;;;;6.40;3.10;;;;;;;29.49;36.14;100220.52;106214;1255;65892;-79
2023/06/19 06:07:14;;;;;;;7.90;3.30;;;;;;;29.73;35.72;100220.30;105353;1252;71112;-69
2023/06/19 06:09:41;;;;;;;5.00;2.80;;;;;;;29.87;35.22;100218.13;105544;1256;60401;-72
2023/06/19 06:12:08;;;;;;;7.10;3.10;;;;;;;29.99;34.34;100221.13;106293;1253;60429;-71
2023/06/19 06:14:35;;;;;;;5.70;2.40;;;;;;;30.01;33.96;100217.54;106311;1256;74227;-81
2023/06/19 06:17:04;;;;;;;4.90;2.70;;;;;;;30.03;33.42;100214.29;105820;1256;67909;-80
2023/06/19 06:19:31;;;;;;;5.70;2.80;;;;;;;30.05;33.47;100214.48;106174;1254;71666;-70
2023/06/19 06:21:59;;;;;;;5.10;2.80;;;;;;;30.23;33.12;100213.55;105551;1256;60393;-72
2023/06/19 06:24:27;;;;;;;6.80;2.50;;;;;;;30.30;32.86;100214.85;106544;1256;60457;-69
2023/06/19 06:26:54;;;;;;;3.70;2.30;;;;;;;30.20;32.09;100217.23;105858;1259;72979;-70
2023/06/19 06:29:21;;;;;;;5.20;2.40;;;;;;;30.06;32.00;100217.77;106436;1252;65765;-78
2023/06/19 06:31:48;;;;;;;4.80;1.80;;;;;;;29.86;32.55;100216.98;106108;1253;72691;-72
2023/06/19 06:34:15;;;;;;;3.90;2.10;;;;;;;29.62;32.75;100211.41;106024;1255;60437;-70
2023/06/19 06:36:42;;;;;;;5.10;2.00;;;;;;;29.45;33.94;100210.32;105984;1251;60530;-80
2023/06/19 06:39:28;;;;;;;4.90;2.00;;;;;;;29.59;34.25;100212.89;105575;1256;73946;-71
2023/06/19 06:41:55;;;;;;;3.70;2.00;;;;;;;29.71;32.71;100210.45;106470;1250;67331;-71
2023/06/19 06:44:22;;;;;;;3.30;2.00;;;;;;;29.64;32.52;100215.27;106651;1250;72880;-70
2023/06/19 06:46:49;;;;;;;5.30;2.20;;;;;;;29.59;32.48;100213.83;105411;1254;60359;-72
2023/06/19 06:49:20;;;;;;;5.00;1.80;;;;;;;29.58;31.95;100211.21;106671;1251;61067;-75
2023/06/19 06:51:47;;;;;;;6.00;1.70;;;;;;;29.54;31.60;100211.36;106438;1254;73833;-71
2023/06/19 06:54:14;;;;;;;3.70;2.10;;;;;;;29.54;31.34;100209.79;105909;1256;67180;-66
2023/06/19 06:56:42;;;;;;;5.80;2.30;;;;;;;29.49;30.66;100210.95;105742;1255;71666;-78
2023/06/19 06:59:09;;;;;;;3.30;2.20;;;;;;;29.38;30.98;100215.70;105425;1256;60385;-69
2023/06/19 07:01:36;;;;;;;3.20;1.80;;;;;;;29.30;30.75;100207.39;105485;1251;60533;-71
2023/06/19 07:04:04;;;;;;;4.00;1.80;;;;;;;29.20;30.51;100204.52;105587;1252;73085;-70
2023/06/19 07:06:31;;;;;;;7.50;2.00;;;;;;;29.13;30.39;100198.48;105922;1254;67066;-71
2023/06/19 07:08:58;;;;;;;4.40;2.20;;;;;;;29.12;30.86;100196.95;106294;1256;73107;-72
2023/06/19 07:11:25;;;;;;;4.00;1.90;;;;;;;29.25;30.82;100201.96;105520;1256;60425;-69
2023/06/19 07:13:52;;;;;;;3.70;1.80;;;;;;;29.32;29.87;100193.73;105482;1254;60443;-72
2023/06/19 07:16:18;;;;;;;4.30;1.80;;;;;;;29.28;29.56;100191.81;106274;1255;73903;-69
2023/06/19 07:18:45;;;;;;;4.30;2.10;;;;;;;29.22;29.59;100194.68;105581;1256;67598;-70
2023/06/19 07:21:13;;;;;;;4.80;2.00;;;;;;;29.21;29.51;100194.09;105674;1256;72627;-69
2023/06/19 07:23:41;;;;;;;6.40;2.10;;;;;;;29.09;28.89;100187.90;105508;1256;60408;-67
2023/06/19 07:26:09;;;;;;;3.20;1.80;;;;;;;29.04;29.16;100187.18;105661;1256;60371;-68
2023/06/19 07:28:36;;;;;;;4.20;2.20;;;;;;;29.10;29.91;100187.61;105801;1256;74152;-76
2023/06/19 07:31:03;;;;;;;6.20;2.00;;;;;;;29.20;30.67;100188.86;105570;1256;68892;-68
2023/06/19 07:33:31;;;;;;;5.80;2.20;;;;;;;29.34;31.19;100188.02;105509;1250;71990;-68
2023/06/19 07:35:58;;;;;;;5.20;2.40;;;;;;;29.61;31.03;100196.17;105656;1251;60421;-68
2023/06/19 07:38:25;;;;;;;3.40;2.30;;;;;;;29.74;29.17;100188.40;105377;1252;60404;-78
2023/06/19 07:40:52;;;;;;;5.90;1.90;;;;;;;29.63;30.06;100187.37;105507;1255;73034;-68
2023/06/19 07:43:22;;;;;;;3.70;1.80;;;;;;;29.69;29.49;100197.77;105805;1255;67177;-69
2023/06/19 07:45:49;;;;;;;5.10;2.10;;;;;;;29.60;29.86;100196.86;105447;1255;72544;-68
2023/06/19 07:48:16;;;;;;;5.10;2.00;;;;;;;29.60;30.41;100194.39;105543;1256;60438;-67
2023/06/19 07:50:43;;;;;;;4.70;2.10;;;;;;;29.85;29.96;100193.90;105701;1254;60515;-70
2023/06/19 07:53:10;;;;;;;5.00;2.00;;;;;;;29.95;29.04;100189.42;105475;1256;73727;-68
2023/06/19 07:55:38;;;;;;;4.90;2.20;;;;;;;29.90;29.60;100190.11;105557;1251;65726;-70
2023/06/19 07:58:04;;;;;;;4.40;2.00;;;;;;;29.99;30.08;100194.08;105577;1256;72535;-69
2023/06/19 08:00:32;;;;;;;4.00;2.30;;;;;;;30.04;28.79;100191.24;105617;1255;60470;-69
2023/06/19 08:02:59;;;;;;;4.60;2.10;;;;;;;30.03;29.12;100188.89;105640;1256;60553;-70
2023/06/19 08:05:26;;;;;;;6.30;2.40;;;;;;;29.94;29.44;100193.48;105838;1254;73839;-69
2023/06/19 08:07:53;;;;;;;4.60;2.10;;;;;;;29.82;30.05;100194.52;105716;1255;67640;-68
2023/06/19 08:10:20;;;;;;;5.40;2.30;;;;;;;29.73;30.30;100190.91;105858;1254;71617;-67
2023/06/19 08:12:48;;;;;;;4.20;2.00;;;;;;;29.72;29.85;100186.95;105734;1254;60444;-73
2023/06/19 08:15:17;;;;;;;5.70;1.90;;;;;;;29.86;29.82;100184.80;105694;1256;60886;-69
2023/06/19 08:17:45;;;;;;;3.90;1.90;;;;;;;29.78;29.20;100185.91;105568;1254;73844;-69
2023/06/19 08:20:12;;;;;;;3.60;2.20;;;;;;;29.68;29.76;100181.30;105396;1254;67227;-69
2023/06/19 08:22:39;;;;;;;4.90;2.00;;;;;;;29.87;29.78;100184.55;105194;1255;72693;-69
2023/06/19 08:25:06;;;;;;;4.40;2.40;;;;;;;30.07;29.13;100178.62;105535;1256;60418;-72
2023/06/19 08:27:33;;;;;;;5.50;2.50;;;;;;;30.19;28.58;100178.80;105719;1254;60324;-70
2023/06/19 08:30:00;;;;;;;5.00;2.30;;;;;;;30.23;27.85;100180.39;105840;1251;74370;-69
2023/06/19 08:32:29;;;;;;;4.10;2.30;;;;;;;30.12;27.41;100181.79;105520;1257;66069;-68
2023/06/19 08:34:56;;;;;;;4.50;2.40;;;;;;;30.11;27.40;100180.02;105552;1257;71778;-69
2023/06/19 08:37:23;;;;;;;5.10;2.50;;;;;;;30.05;27.68;100181.84;105488;1256;60418;-69
2023/06/19 08:39:50;;;;;;;4.30;2.60;;;;;;;29.91;27.93;100178.08;106177;1257;60421;-69
2023/06/19 08:42:17;;;;;;;3.50;2.10;;;;;;;29.84;27.54;100180.75;105509;1254;74927;-68
2023/06/19 08:44:44;;;;;;;8.30;2.40;;;;;;;29.72;28.12;100184.23;105502;1255;65938;-68
2023/06/19 08:47:11;;;;;;;7.20;2.70;;;;;;;29.51;28.29;100186.58;105731;1250;70200;-72
2023/06/19 08:49:39;;;;;;;7.10;2.50;;;;;;;29.35;28.51;100181.69;105992;1256;61607;-68
2023/06/19 08:52:07;;;;;;;5.70;2.10;;;;;;;29.32;28.69;100178.80;105925;1256;60473;-70
2023/06/19 08:54:43;;;;;;;8.10;2.50;;;;;;;29.42;28.81;100177.63;105594;1254;73832;-69
2023/06/19 08:57:11;;;;;;;5.80;2.80;;;;;;;29.29;28.49;100184.48;105521;1256;65984;-71
2023/06/19 08:59:38;;;;;;;4.50;2.50;;;;;;;29.07;28.82;100179.65;105817;1255;71940;-69
2023/06/19 09:02:06;;;;;;;5.00;2.70;;;;;;;29.04;29.98;100176.16;105625;1256;60924;-70
2023/06/19 09:04:34;;;;;;;4.80;2.40;;;;;;;29.08;29.48;100178.15;105431;1254;60409;-69
2023/06/19 09:07:03;;;;;;;3.80;2.20;;;;;;;29.00;29.62;100179.29;105450;1256;74414;-69
2023/06/19 09:09:47;;;;;;;8.30;3.40;;;;;;;28.98;29.51;100176.48;105704;1256;67178;-69
2023/06/19 09:12:15;;;;;;;7.00;2.10;;;;;;;29.07;29.68;100180.65;105614;1256;72802;-69
2023/06/19 09:14:45;;;;;;;5.50;2.10;;;;;;;29.32;29.60;100179.80;105449;1257;60964;-69
2023/06/19 09:17:17;;;;;;;5.90;2.90;;;;;;;29.48;29.83;100181.42;105061;1256;547860;-69
2023/06/19 09:20:05;;;;;;;5.80;2.40;;;;;;;29.56;28.08;100179.77;105353;1260;73818;-74
2023/06/19 09:22:33;;;;;;;7.80;2.70;;;;;;;29.27;28.03;100171.64;105782;1251;67799;-70
2023/06/19 09:25:01;;;;;;;5.80;2.90;;;;;;;28.97;29.67;100167.90;105809;1255;72359;-70
2023/06/19 09:27:32;;;;;;;4.90;3.00;;;;;;;28.92;29.96;100172.20;106011;1251;60431;-73
2023/06/19 09:30:00;;;;;;;5.90;2.80;;;;;;;28.99;29.12;100168.89;106015;1256;60543;-71
2023/06/19 09:32:28;;;;;;;7.10;2.50;;;;;;;29.03;28.88;100158.98;105876;1251;72425;-68
2023/06/19 09:34:58;;;;;;;5.70;2.70;;;;;;;29.17;28.84;100160.80;106087;1251;67566;-68
2023/06/19 09:37:26;;;;;;;5.90;2.30;;;;;;;29.33;29.04;100153.32;106113;1253;70680;-69
2023/06/19 09:39:55;;;;;;;6.60;2.60;;;;;;;29.46;28.70;100160.18;105920;1256;60357;-72
2023/06/19 09:42:33;;;;;;;5.40;2.70;;;;;;;29.45;28.95;100156.45;105920;1251;60441;-69
2023/06/19 09:45:05;;;;;;;4.50;2.50;;;;;;;29.56;29.35;100160.98;105938;1257;73750;-68
2023/06/19 09:47:38;;;;;;;8.50;2.90;;;;;;;29.58;28.95;100160.61;105685;1254;65580;-70
2023/06/19 09:50:09;;;;;;;5.80;3.10;;;;;;;29.44;29.07;100162.70;105523;1256;72067;-68
2023/06/19 09:52:36;;;;;;;4.20;2.40;;;;;;;29.34;28.67;100159.20;105634;1257;60619;-72
2023/06/19 09:55:06;;;;;;;6.50;3.00;;;;;;;29.30;28.29;100153.63;105580;1255;60480;-72
2023/06/19 09:57:33;;;;;;;5.60;2.70;;;;;;;29.21;29.17;100155.02;105920;1257;74324;-69
2023/06/19 10:00:15;;;;;;;5.00;2.40;;;;;;;29.17;30.30;100153.86;105967;1254;66941;-73
2023/06/19 10:02:44;;;;;;;6.70;2.90;;;;;;;29.29;29.61;100153.48;105947;1256;72740;-69
2023/06/19 10:05:14;;;;;;;3.40;2.20;;;;;;;29.41;28.89;100153.32;105812;1258;60498;-69
2023/06/19 10:07:44;;;;;;;5.60;2.50;;;;;;;29.53;28.15;100150.66;105929;1254;60534;-70
2023/06/19 10:10:22;;;;;;;6.10;2.70;;;;;;;29.62;28.31;100144.27;105829;1250;74033;-69
2023/06/19 10:12:50;;;;;;;4.10;2.60;;;;;;;29.70;28.68;100141.77;106315;1251;65834;-73
2023/06/19 10:15:18;;;;;;;4.40;3.10;;;;;;;29.78;27.79;100142.67;105751;1254;72772;-72
2023/06/19 10:17:51;;;;;;;5.40;3.10;;;;;;;29.79;27.75;100142.52;105503;1262;60440;-69
2023/06/19 10:20:31;;;;;;;5.00;3.00;;;;;;;29.75;27.83;100141.19;105934;1255;60383;-69
2023/06/19 10:23:10;;;;;;;6.70;3.00;;;;;;;29.76;27.71;100141.44;105676;1254;74315;-72
2023/06/19 10:25:38;;;;;;;4.80;3.20;;;;;;;29.90;27.95;100140.83;105610;1253;67047;-69
2023/06/19 10:28:28;;;;;;;4.80;2.80;;;;;;;30.18;27.52;100142.45;105510;1257;63877;-72
2023/06/19 10:30:56;;;;;;;4.20;2.80;;;;;;;30.12;27.68;100140.89;105525;1254;60430;-68
2023/06/19 10:33:25;;;;;;;4.80;3.10;;;;;;;30.00;27.25;100144.84;105777;1255;60558;-69
2023/06/19 10:35:52;;;;;;;5.60;3.10;;;;;;;29.83;27.24;100131.11;106534;1251;73049;-69
2023/06/19 10:38:19;;;;;;;4.30;3.10;;;;;;;29.85;27.13;100132.64;105586;1251;66873;-69
2023/06/19 10:40:46;;;;;;;4.90;3.10;;;;;;;29.70;27.22;100130.17;105753;1254;71877;-69
2023/06/19 10:43:20;;;;;;;7.10;3.40;;;;;;;29.57;27.24;100133.05;105596;1257;60527;-71
2023/06/19 10:45:47;;;;;;;4.70;3.00;;;;;;;29.66;27.17;100126.09;105519;1251;60438;-70
2023/06/19 10:48:22;;;;;;;5.40;3.80;;;;;;;29.79;26.89;100128.77;105810;1259;73868;-71
2023/06/19 10:50:49;;;;;;;6.30;3.30;;;;;;;29.88;26.43;100121.26;105460;1254;67879;-70
2023/06/19 10:53:26;;;;;;;7.70;3.70;;;;;;;30.14;26.76;100116.96;105569;1251;73468;-68
2023/06/19 10:56:01;;;;;;;5.20;3.60;;;;;;;30.46;26.71;100117.83;105951;1250;61420;-67
2023/06/19 10:58:28;;;;;;;7.50;3.40;;;;;;;30.45;26.33;100116.63;105665;1251;60275;-68
2023/06/19 11:00:56;;;;;;;8.60;5.00;;;;;;;30.25;26.80;100117.16;105561;1253;74484;-65
2023/06/19 11:03:23;;;;;;;6.00;3.70;;;;;;;30.18;26.97;100113.15;106221;1255;67247;-66
2023/06/19 11:05:51;;;;;;;7.50;4.10;;;;;;;30.29;27.92;100110.89;105717;1264;72734;-66
2023/06/19 11:08:19;;;;;;;6.60;3.90;;;;;;;30.45;28.26;100112.70;106098;1254;60394;-65
2023/06/19 11:10:46;;;;;;;6.70;4.00;;;;;;;30.45;26.92;100112.08;105800;1251;60392;-64
2023/06/19 11:13:14;;;;;;;7.20;4.20;;;;;;;30.38;27.14;100107.42;106079;1253;73577;-65
2023/06/19 11:15:41;;;;;;;6.10;4.00;;;;;;;30.47;27.17;100107.33;105945;1251;66019;-65
2023/06/19 11:18:08;;;;;;;7.60;4.80;;;;;;;30.57;26.62;100106.35;105615;1251;72625;-63
2023/06/19 11:20:51;;;;;;;7.40;4.70;;;;;;;30.62;26.33;100106.44;105799;1254;60162;-67